Kezdőlap
METAR-TAF:

METAR-TAF

Repülőterek :

Aktau, Kazahsztán

földrajzi szélesség: 43-52-12N, földrajzi hosszúság: 051-06E, magasság: 22 m

Jelenlegi meteorológiai megfigyelések

A jelentés 32 perccel ezelõtt készült, 03:00 UTC
Kelet-délkeleti szél 16 kt
Hőmérséklet 5°C
Páratartalom 87%
Légköri nyomás 1011 hPa
Látótávolság 10 km, vagy több
Szakadozott felhőzet 3800 lábon

METAR: UATE 120300Z 11008MPS 9999 BKN038 05/03 Q1011 R12/0///70 NOSIG RMK QFE756/1009

Idő: 08:32 (03:32 UTC)

Előrejelzés

A jelentés 4 órával és 28 perccel ezelõtt készült, 23:04 UTC
Az előrejelzés 12-én 00 óra UTC és 12-én 24 óra UTC között érvényes
Dél-délkeleti szél 17 kt széllökések: 29 kt
Látótávolság 10 km, vagy több
Szakadozott felhőzet 3300 lábon

TAF: UATE 112304Z 1200/1224 15009G15MPS 9999 BKN033 TX11/1209Z TN05/1202Z

Meteorológiai megfigyelések és előrejelzések több, mint 4000 repülőtéren (METAR és TAF jelentéseket).

A térképen piros és sárga pontok jelzik az elérhető meteorológiai állomásokat.

Mozgassa az egeret a pont fölött, hogy megjelenjen az állomás neve.

Azután kattintson az időjárási megfigyelések és előrejelzések megtekintéséhez.

A térkép megváltoztatása: kattintson a fekete keresztel jelölt zöld gombra ráközelítéshez, a vonallal jelölt zöld gombra távolításhoz, vagy a zöld nyilakra a szomszédos térképek eléréséhez.


METAR-TAF: